Delta, CO (81416)

6:24 AM MDT on September 02, 2015 (GMT -0600)
Garnet Mesa | | Change Station
CLOSE
Current Station
Personal Weather Station
Location: Delta, CO
Elevation: 5056 ft
Nearby Weather Stations

Elev 5056 ft 38.74 °N, 108.06 °W | Updated 12 seconds ago

Clear
Clear
55.9 °F
Feels Like 55.9 °F
N
0.0
Wind Variable Wind from SSE
Gusts 0.0 mph

Today
High -- | Low -- °F
--% Chance of Precip.
Yesterday
High -- | Low -- °F
Precip. -- in
6:42 AM 7:41 PM
Waning Gibbous, 80% visible
Pressure 30.20 in
Visibility 7.0 miles
Clouds Clear
Dew Point 53 °F
Humidity 89%
Rainfall 0.00 in
Snow Depth Not available.
UV 0.0 out of 12
Pollen 10.00 out of 12
Air Quality Not available.
Flu Activity Not available.
METAR KAJZ 021155Z AUTO 05006KT 7SM CLR 16/10 A3020 RMK AO2 T01560098 10214 20156
Pressure 30.20 in
Visibility 7.0 miles
Clouds Clear
Dew Point 53 °F
Humidity 89%
Rainfall 0.00 in
Snow Depth Not available.
UV 0.0 out of 12
Pollen 10.00 out of 12
Air Quality Not available.
Flu Activity Not available.
METAR KAJZ 021155Z AUTO 05006KT 7SM CLR 16/10 A3020 RMK AO2 T01560098 10214 20156

10-Day Weather Forecast

×

Almanac

Astronomy

Sep. 02, 2015 Rise Set
Actual Time
Civil Twilight
Nautical Twilight
Astronomical Twilight
Moon
Length of Visible Light
Length of Day
Tomorrow will be .
, % of the Moon is Illuminated

Today's Extremes

State Highs State Lows

Community

WunderPhotos

Upload Photos

1,851,738 photos uploaded!

WunderBlogs® & News

Nearby

Air Quality

  Air Quality AQ Index Pollutant
Not available.

Snow Depth

Station Depth Elevation

Earthquake Activity

City Distance Mag. Time & Date
Minimum magnitude displayed is 2.5.

Coastal Water Temperatures

Place Temperature

Stations

Nearby Weather Stations

Station Location Temp. Windchill Dew Point Humidity Wind Precip. Elev Updated Type